createdAt,value
2022-12-17T00:00:27.607Z,-8.07
2022-12-17T00:04:48.318Z,-8.15
2022-12-17T00:09:08.795Z,-8.20
2022-12-17T00:13:39.597Z,-8.20
2022-12-17T00:18:00.316Z,-8.26
2022-12-17T00:22:20.194Z,-8.27
2022-12-17T00:26:40.507Z,-8.29
2022-12-17T00:31:00.434Z,-8.33
2022-12-17T00:35:40.556Z,-8.45
2022-12-17T00:40:00.676Z,-8.44
2022-12-17T00:44:20.596Z,-8.44
2022-12-17T00:48:41.114Z,-8.52
2022-12-17T00:53:00.936Z,-8.51
2022-12-17T00:57:21.419Z,-8.51
2022-12-17T01:01:41.693Z,-8.48
2022-12-17T01:06:01.781Z,-8.49
2022-12-17T01:10:21.894Z,-8.53
2022-12-17T01:14:42.722Z,-8.59
2022-12-17T01:19:02.761Z,-8.61
2022-12-17T01:23:26.759Z,-8.61
2022-12-17T01:27:46.806Z,-8.60
2022-12-17T01:32:06.919Z,-8.62
2022-12-17T01:36:27.147Z,-8.67
2022-12-17T01:40:46.884Z,-8.70
2022-12-17T01:45:12.807Z,-8.73
2022-12-17T01:49:33.300Z,-8.76
2022-12-17T01:53:56.836Z,-8.83
2022-12-17T01:58:16.785Z,-8.93
2022-12-17T02:02:36.961Z,-8.98
2022-12-17T02:07:02.884Z,-9.00
2022-12-17T02:12:14.378Z,-8.92
2022-12-17T02:16:40.849Z,-8.89
2022-12-17T02:21:06.182Z,-8.92
2022-12-17T02:25:44.105Z,-8.95
2022-12-17T02:30:13.542Z,-8.95
2022-12-17T02:34:33.623Z,-9.01
2022-12-17T02:38:53.732Z,-9.02
2022-12-17T02:43:17.262Z,-9.04
2022-12-17T02:47:39.794Z,-9.10
2022-12-17T02:52:00.108Z,-9.11
2022-12-17T02:56:19.973Z,-9.12
2022-12-17T03:00:39.936Z,-9.16
2022-12-17T03:05:10.510Z,-9.25
2022-12-17T03:09:39.843Z,-9.27
2022-12-17T03:13:59.918Z,-9.30
2022-12-17T03:18:20.022Z,-9.32
2022-12-17T03:22:40.193Z,-9.32
2022-12-17T03:27:04.753Z,-9.37
2022-12-17T03:31:25.060Z,-9.42
2022-12-17T03:35:45.024Z,-9.42
2022-12-17T03:40:05.249Z,-9.43
2022-12-17T03:44:25.415Z,-9.42
2022-12-17T03:48:45.296Z,-9.43
2022-12-17T03:53:05.148Z,-9.45
2022-12-17T03:57:24.940Z,-9.48
2022-12-17T04:01:45.160Z,-9.54
2022-12-17T04:06:05.519Z,-9.58
2022-12-17T04:10:26.170Z,-9.65
2022-12-17T04:14:46.764Z,-9.61
2022-12-17T04:19:06.632Z,-9.59
2022-12-17T04:23:26.738Z,-9.61
2022-12-17T04:27:46.722Z,-9.62
2022-12-17T04:32:07.049Z,-9.67
2022-12-17T04:36:27.014Z,-9.69
2022-12-17T04:40:47.260Z,-9.78
2022-12-17T04:45:07.154Z,-9.76
2022-12-17T04:49:27.222Z,-9.79
2022-12-17T04:53:47.305Z,-9.86
2022-12-17T04:58:07.447Z,-9.88
2022-12-17T05:02:27.368Z,-9.90
2022-12-17T05:06:47.521Z,-9.93
2022-12-17T05:11:07.148Z,-9.91
2022-12-17T05:15:27.700Z,-9.90
2022-12-17T05:19:47.569Z,-9.91
2022-12-17T05:24:07.274Z,-9.90
2022-12-17T05:28:27.033Z,-9.93
2022-12-17T05:32:47.118Z,-9.98
2022-12-17T05:37:07.151Z,-10.02
2022-12-17T05:41:26.990Z,-10.02
2022-12-17T05:45:46.898Z,-10.02
2022-12-17T05:50:07.072Z,-10.01
2022-12-17T05:54:27.618Z,-10.10
2022-12-17T05:58:47.707Z,-10.16
2022-12-17T06:03:07.739Z,-10.16
2022-12-17T06:07:28.095Z,-10.16
2022-12-17T06:11:48.009Z,-10.14
2022-12-17T06:16:09.089Z,-10.19
2022-12-17T06:20:29.830Z,-10.26
2022-12-17T06:24:49.671Z,-10.27
2022-12-17T06:29:26.509Z,-10.29
2022-12-17T06:33:47.132Z,-10.29
2022-12-17T06:38:07.457Z,-10.39
2022-12-17T06:42:27.131Z,-10.38
2022-12-17T06:46:46.822Z,-10.40
2022-12-17T06:51:07.097Z,-10.38
2022-12-17T06:55:27.423Z,-10.40
2022-12-17T06:59:47.425Z,-10.42
2022-12-17T07:04:07.592Z,-10.39
2022-12-17T07:08:27.859Z,-10.44
2022-12-17T07:12:47.931Z,-10.44
2022-12-17T07:17:08.004Z,-10.45
2022-12-17T07:21:27.910Z,-10.44
2022-12-17T07:25:48.065Z,-10.47
2022-12-17T07:30:08.107Z,-10.45
2022-12-17T07:34:28.155Z,-10.42
2022-12-17T07:38:48.104Z,-10.40
2022-12-17T07:43:07.911Z,-10.41
2022-12-17T07:47:27.678Z,-10.33
2022-12-17T07:51:47.731Z,-10.26
2022-12-17T07:56:07.732Z,-10.22
2022-12-17T08:00:28.607Z,-10.20
2022-12-17T08:04:48.488Z,-10.12
2022-12-17T08:09:08.954Z,-10.01
2022-12-17T08:13:29.182Z,-9.80
2022-12-17T08:17:49.814Z,-9.68
2022-12-17T08:22:09.603Z,-9.42
2022-12-17T08:26:29.776Z,-9.11
2022-12-17T08:30:49.840Z,-8.78
2022-12-17T08:35:09.919Z,-8.56
2022-12-17T08:39:29.803Z,-8.19
2022-12-17T08:43:49.757Z,-7.89
2022-12-17T08:48:09.919Z,-7.52
2022-12-17T08:52:30.221Z,-7.23
2022-12-17T08:56:50.246Z,-6.93
2022-12-17T09:01:10.071Z,-6.66
2022-12-17T09:05:30.660Z,-6.51
2022-12-17T09:09:51.042Z,-6.27
2022-12-17T09:14:10.902Z,-6.07
2022-12-17T09:18:31.125Z,-5.78
2022-12-17T09:22:51.068Z,-5.55
2022-12-17T09:27:11.008Z,-5.28
2022-12-17T09:31:36.841Z,-5.01
2022-12-17T09:35:58.716Z,-4.75
2022-12-17T09:40:18.629Z,-4.60
2022-12-17T09:45:00.858Z,-4.44
2022-12-17T09:49:28.010Z,-4.30
2022-12-17T09:54:09.285Z,-4.21
2022-12-17T09:58:42.209Z,-4.18
2022-12-17T10:03:03.160Z,-4.06
2022-12-17T10:07:35.871Z,-4.06
2022-12-17T10:11:56.367Z,-4.06
2022-12-17T10:16:16.853Z,-4.16
2022-12-17T10:20:43.503Z,-4.14
2022-12-17T10:25:03.848Z,-4.10
2022-12-17T10:29:29.454Z,-4.02
2022-12-17T10:33:55.900Z,-3.96
2022-12-17T10:38:18.567Z,-3.86
2022-12-17T10:42:40.318Z,-3.82
2022-12-17T10:47:01.120Z,-3.78
2022-12-17T10:51:22.692Z,-3.68
2022-12-17T10:55:48.641Z,-3.60
2022-12-17T11:00:10.704Z,-3.50
2022-12-17T11:04:57.241Z,-3.39
2022-12-17T11:09:19.764Z,-3.28
2022-12-17T11:13:48.764Z,-3.18
2022-12-17T11:18:11.565Z,-3.10
2022-12-17T11:22:57.320Z,-3.04
2022-12-17T11:27:17.841Z,-2.93
2022-12-17T11:31:56.264Z,-2.84
2022-12-17T11:36:39.243Z,-2.74
2022-12-17T11:41:00.754Z,-2.61
2022-12-17T11:45:50.178Z,-2.52
2022-12-17T11:50:31.089Z,-2.41
2022-12-17T11:55:10.725Z,-2.29
2022-12-17T11:59:53.435Z,-2.14
2022-12-17T12:04:28.013Z,-2.02
2022-12-17T12:08:49.246Z,-1.94
2022-12-17T12:13:30.584Z,-1.85
2022-12-17T12:18:19.261Z,-1.77
2022-12-17T12:23:24.910Z,-1.73
2022-12-17T12:28:11.006Z,-1.67
2022-12-17T12:32:43.015Z,-1.63
2022-12-17T12:37:04.281Z,-1.55
2022-12-17T12:41:38.435Z,-1.48
2022-12-17T12:46:14.613Z,-1.40
2022-12-17T12:51:00.949Z,-1.30
2022-12-17T12:55:21.051Z,-1.24
2022-12-17T12:59:52.843Z,-1.18
2022-12-17T13:04:15.419Z,-1.11
2022-12-17T13:08:24.964Z,-1.08
2022-12-17T13:12:31.129Z,-1.04
2022-12-17T13:16:53.956Z,-0.99
2022-12-17T13:20:59.973Z,-0.97
2022-12-17T13:25:22.976Z,-0.96
2022-12-17T13:29:35.756Z,-0.93
2022-12-17T13:34:15.601Z,-0.92
2022-12-17T13:43:52.691Z,-0.89
2022-12-17T13:47:56.433Z,-0.87
2022-12-17T13:52:11.412Z,-0.85
2022-12-17T13:56:13.149Z,-0.83
2022-12-17T14:00:26.778Z,-0.81
2022-12-17T14:04:30.377Z,-0.78
2022-12-17T14:08:33.095Z,-0.77
2022-12-17T14:12:35.550Z,-0.75
2022-12-17T14:16:37.413Z,-0.76
2022-12-17T14:20:40.455Z,-0.77
2022-12-17T14:24:41.927Z,-0.78
2022-12-17T14:28:54.382Z,-0.81
2022-12-17T14:32:56.236Z,-0.84
2022-12-17T14:36:59.873Z,-0.89
2022-12-17T14:41:43.190Z,-0.92
2022-12-17T14:46:16.749Z,-1.00
2022-12-17T14:50:18.123Z,-1.07
2022-12-17T14:54:39.134Z,-1.11
2022-12-17T14:58:45.579Z,-1.17
2022-12-17T15:02:52.536Z,-1.26
2022-12-17T15:06:55.455Z,-1.28
2022-12-17T15:10:57.318Z,-1.34
2022-12-17T15:14:58.806Z,-1.43
2022-12-17T15:19:01.457Z,-1.51
2022-12-17T15:23:03.435Z,-1.62
2022-12-17T15:27:04.916Z,-1.71
2022-12-17T15:31:06.528Z,-1.79
2022-12-17T15:35:09.510Z,-1.87
2022-12-17T15:39:11.331Z,-1.97
2022-12-17T15:43:13.404Z,-2.08
2022-12-17T15:47:14.864Z,-2.15
2022-12-17T15:51:19.540Z,-2.22
2022-12-17T15:55:21.795Z,-2.37
2022-12-17T15:59:23.335Z,-2.50
2022-12-17T16:03:24.735Z,-2.62
2022-12-17T16:07:26.729Z,-2.76
2022-12-17T16:11:28.127Z,-2.84
2022-12-17T16:15:30.293Z,-2.95
2022-12-17T16:19:31.693Z,-3.04
2022-12-17T16:23:33.534Z,-3.10
2022-12-17T16:27:34.911Z,-3.22
2022-12-17T16:31:37.330Z,-3.27
2022-12-17T16:35:38.952Z,-3.37
2022-12-17T16:39:40.657Z,-3.44
2022-12-17T16:43:42.551Z,-3.43
2022-12-17T16:47:43.982Z,-3.42
2022-12-17T16:51:46.736Z,-3.44
2022-12-17T16:55:49.680Z,-3.46
2022-12-17T16:59:51.165Z,-3.50
2022-12-17T17:03:52.924Z,-3.52
2022-12-17T17:07:54.441Z,-3.52
2022-12-17T17:11:58.580Z,-3.55
2022-12-17T17:16:00.220Z,-3.52
2022-12-17T17:20:01.663Z,-3.50
2022-12-17T17:24:18.447Z,-3.50
2022-12-17T17:28:22.088Z,-3.55
2022-12-17T17:32:23.559Z,-3.53
2022-12-17T17:36:30.310Z,-3.57
2022-12-17T17:40:31.699Z,-3.60
2022-12-17T17:44:34.005Z,-3.60
2022-12-17T17:48:36.472Z,-3.60
2022-12-17T17:52:38.195Z,-3.60
2022-12-17T17:56:41.425Z,-3.64
2022-12-17T18:00:43.150Z,-3.68
2022-12-17T18:04:44.637Z,-3.68
2022-12-17T18:08:47.274Z,-3.70
2022-12-17T18:13:07.394Z,-3.71
2022-12-17T18:17:08.896Z,-3.72
2022-12-17T18:21:13.011Z,-3.71
2022-12-17T18:25:16.179Z,-3.75
2022-12-17T18:29:20.424Z,-3.76
2022-12-17T18:33:21.839Z,-3.79
2022-12-17T18:37:23.207Z,-3.84
2022-12-17T18:41:44.221Z,-3.82
2022-12-17T18:45:45.939Z,-3.81
2022-12-17T18:49:47.417Z,-3.82
2022-12-17T18:53:49.627Z,-3.86
2022-12-17T18:57:51.149Z,-3.87
2022-12-17T19:01:53.303Z,-3.86
2022-12-17T19:05:54.830Z,-3.89
2022-12-17T19:09:56.849Z,-3.93
2022-12-17T19:13:58.477Z,-3.94
2022-12-17T19:17:59.854Z,-3.99
2022-12-17T19:22:02.043Z,-3.99
2022-12-17T19:26:20.532Z,-4.02
2022-12-17T19:30:21.996Z,-4.04
2022-12-17T19:34:23.449Z,-4.07
2022-12-17T19:38:24.909Z,-4.07
2022-12-17T19:42:34.964Z,-4.08
2022-12-17T19:46:38.219Z,-4.13
2022-12-17T19:50:39.561Z,-4.15
2022-12-17T19:54:41.426Z,-4.19
2022-12-17T19:58:44.354Z,-4.22
2022-12-17T20:02:46.185Z,-4.23
2022-12-17T20:06:47.653Z,-4.26
2022-12-17T20:10:49.150Z,-4.31
2022-12-17T20:14:50.528Z,-4.35
2022-12-17T20:18:52.028Z,-4.40
2022-12-17T20:22:53.455Z,-4.40
2022-12-17T20:26:55.249Z,-4.43
2022-12-17T20:30:58.123Z,-4.45
2022-12-17T20:34:59.590Z,-4.50
2022-12-17T20:39:01.128Z,-4.53
2022-12-17T20:43:03.728Z,-4.59
2022-12-17T20:47:05.065Z,-4.64
2022-12-17T20:51:11.899Z,-4.63
2022-12-17T20:55:13.296Z,-4.65
2022-12-17T20:59:17.893Z,-4.67
2022-12-17T21:03:19.632Z,-4.72
2022-12-17T21:07:21.389Z,-4.74
2022-12-17T21:11:25.479Z,-4.79
2022-12-17T21:15:27.250Z,-4.79
2022-12-17T21:19:28.710Z,-4.87
2022-12-17T21:23:31.407Z,-4.89
2022-12-17T21:27:34.650Z,-4.92
2022-12-17T21:31:40.322Z,-4.99
2022-12-17T21:35:41.785Z,-5.02
2022-12-17T21:39:43.485Z,-5.03
2022-12-17T21:43:45.991Z,-5.06
2022-12-17T21:47:47.433Z,-5.11
2022-12-17T21:51:48.769Z,-5.14
2022-12-17T21:55:51.009Z,-5.20
2022-12-17T21:59:52.560Z,-5.23
2022-12-17T22:03:57.626Z,-5.28
2022-12-17T22:07:59.383Z,-5.30
2022-12-17T22:12:20.187Z,-5.34
2022-12-17T22:16:21.641Z,-5.36
2022-12-17T22:20:23.661Z,-5.34
2022-12-17T22:24:25.368Z,-5.36
2022-12-17T22:28:26.795Z,-5.36
2022-12-17T22:32:46.681Z,-5.38
2022-12-17T22:40:25.809Z,-5.40
2022-12-17T22:44:35.173Z,-5.41
2022-12-17T22:45:52.087Z,-5.44
2022-12-17T22:49:55.931Z,-5.46
2022-12-17T22:54:01.333Z,-5.50
2022-12-17T22:58:03.289Z,-5.51
2022-12-17T23:02:04.924Z,-5.54
2022-12-17T23:06:12.234Z,-5.58
2022-12-17T23:10:14.449Z,-5.61
2022-12-17T23:14:16.594Z,-5.66
2022-12-17T23:18:18.121Z,-5.68
2022-12-17T23:22:22.303Z,-5.69
2022-12-17T23:26:27.115Z,-5.68
2022-12-17T23:30:28.558Z,-5.68
2022-12-17T23:34:30.078Z,-5.70
2022-12-17T23:38:31.443Z,-5.71
2022-12-17T23:42:32.943Z,-5.70
2022-12-17T23:46:34.339Z,-5.70
2022-12-17T23:50:35.877Z,-5.68
2022-12-17T23:54:37.453Z,-5.70
2022-12-17T23:58:40.701Z,-5.70
